Time;durP1;ratioP1;P1;durP2;ratioP2;P2;SDS_P1;SDS_P2;PMS_P1;PMS_P2;Temp;Humidity;BMP_temperature;BMP_pressure;BME280_temperature;BME280_humidity;BME280_pressure;Samples;Min_cycle;Max_cycle;Signal;HPM_P1;HPM_P2
2023/03/30 00:01:19;;;;;;;4.25;1.80;;;;;;;10.24;96.07;100422.69;5049017;28;20074;-75
2023/03/30 00:03:46;;;;;;;11.93;2.17;;;;;;;10.22;96.37;100413.47;5063445;28;20082;-75
2023/03/30 00:06:19;;;;;;;4.95;1.70;;;;;;;10.20;96.40;100418.81;5061569;28;20029;-75
2023/03/30 00:08:45;;;;;;;8.05;1.88;;;;;;;10.18;96.47;100407.78;5055830;28;20033;-76
2023/03/30 00:11:14;;;;;;;6.97;1.92;;;;;;;10.16;96.64;100393.41;5059155;28;20032;-75
2023/03/30 00:13:40;;;;;;;6.53;1.98;;;;;;;10.15;96.54;100397.75;5055524;28;20052;-75
2023/03/30 00:16:08;;;;;;;8.90;1.90;;;;;;;10.13;96.68;100404.88;5060537;28;20032;-75
2023/03/30 00:18:35;;;;;;;5.97;1.63;;;;;;;10.11;96.79;100404.22;5044549;28;20036;-75
2023/03/30 00:21:01;;;;;;;5.72;1.58;;;;;;;10.06;97.00;100403.94;5050580;28;20089;-76
2023/03/30 00:23:28;;;;;;;7.93;1.90;;;;;;;10.05;96.92;100410.06;5058143;28;20024;-76
2023/03/30 00:25:53;;;;;;;14.10;2.08;;;;;;;10.01;96.98;100403.59;5061546;28;20017;-76
2023/03/30 00:28:19;;;;;;;9.57;1.88;;;;;;;9.96;97.23;100405.84;5051747;28;20035;-76
2023/03/30 00:30:46;;;;;;;5.90;1.85;;;;;;;9.93;97.19;100405.22;5060828;28;20025;-74
2023/03/30 00:33:12;;;;;;;6.45;2.03;;;;;;;9.92;97.37;100415.72;5058661;28;20089;-76
2023/03/30 00:35:38;;;;;;;6.13;2.15;;;;;;;9.88;97.39;100404.88;5063703;28;20039;-75
2023/03/30 00:38:04;;;;;;;5.00;2.72;;;;;;;9.84;97.41;100406.16;5062415;28;20124;-76
2023/03/30 00:40:32;;;;;;;4.80;1.77;;;;;;;9.78;97.45;100399.06;5044662;28;20067;-75
2023/03/30 00:43:06;;;;;;;6.35;2.05;;;;;;;9.80;97.43;100385.94;5060217;28;20035;-75
2023/03/30 00:45:34;;;;;;;10.05;2.42;;;;;;;9.80;97.04;100384.16;5046265;28;20036;-75
2023/03/30 00:48:10;;;;;;;6.30;1.85;;;;;;;9.92;95.56;100377.69;5062803;28;20029;-75
2023/03/30 00:50:44;;;;;;;7.32;2.40;;;;;;;9.91;95.41;100370.91;5077084;28;20041;-75
2023/03/30 00:53:16;;;;;;;5.82;2.03;;;;;;;9.91;95.15;100365.72;5078714;28;20563;-74
2023/03/30 00:55:44;;;;;;;7.82;1.80;;;;;;;9.92;95.14;100361.34;5057620;28;20044;-75
2023/03/30 00:58:12;;;;;;;3.83;1.90;;;;;;;9.87;95.42;100359.25;5047784;28;20040;-75
2023/03/30 01:00:39;;;;;;;5.93;2.28;;;;;;;9.91;95.47;100354.56;5066382;28;20368;-76
2023/03/30 01:03:15;;;;;;;5.82;2.17;;;;;;;9.92;94.90;100356.97;5060568;28;20027;-75
2023/03/30 01:05:43;;;;;;;5.70;2.10;;;;;;;9.89;95.19;100365.06;5043264;28;20167;-75
2023/03/30 01:08:12;;;;;;;5.82;2.38;;;;;;;9.88;95.39;100362.63;5064656;28;20056;-75
2023/03/30 01:10:39;;;;;;;7.72;1.92;;;;;;;9.84;95.38;100356.97;5060316;28;20036;-76
2023/03/30 01:13:05;;;;;;;10.85;1.80;;;;;;;9.82;95.67;100364.09;5046165;28;20403;-75
2023/03/30 01:15:34;;;;;;;7.38;1.40;;;;;;;9.81;95.87;100361.66;5059990;28;20056;-76
2023/03/30 01:18:18;;;;;;;5.35;1.98;;;;;;;9.78;96.01;100365.38;5051229;28;20043;-75
2023/03/30 01:21:10;;;;;;;5.22;1.77;;;;;;;9.78;95.90;100355.03;5056516;28;20498;-75
2023/03/30 01:23:54;;;;;;;6.57;2.03;;;;;;;9.80;95.85;100353.09;5063130;28;20075;-75
2023/03/30 01:26:38;;;;;;;6.47;2.42;;;;;;;9.82;95.53;100356.31;5058986;28;20131;-75
2023/03/30 01:29:12;;;;;;;8.00;1.55;;;;;;;10.01;95.04;100359.56;5056614;28;20071;-75
2023/03/30 01:31:37;;;;;;;7.22;1.90;;;;;;;10.06;93.65;100362.47;5061990;28;20060;-75
2023/03/30 01:34:34;;;;;;;4.05;1.60;;;;;;;10.40;90.83;100361.50;5047126;28;20124;-75
2023/03/30 01:37:16;;;;;;;11.55;2.65;;;;;;;10.40;90.82;100359.72;5057593;28;20090;-75
2023/03/30 01:40:08;;;;;;;4.82;1.58;;;;;;;10.56;90.22;100347.66;5059006;28;20041;-75
2023/03/30 01:42:46;;;;;;;7.57;1.67;;;;;;;10.78;88.64;100354.72;5058429;28;20025;-75
2023/03/30 01:45:37;;;;;;;8.07;1.60;;;;;;;11.07;87.82;100358.50;5047052;28;20039;-75
2023/03/30 01:48:22;;;;;;;10.45;2.00;;;;;;;11.29;85.53;100342.16;5059516;28;20028;-76
2023/03/30 01:50:52;;;;;;;7.45;2.20;;;;;;;11.44;84.80;100344.81;5044842;28;20597;-75
2023/03/30 01:53:33;;;;;;;7.22;1.48;;;;;;;11.42;85.08;100346.78;5077609;28;20040;-75
2023/03/30 01:56:06;;;;;;;8.55;1.58;;;;;;;11.79;82.68;100337.44;5063452;28;20084;-76
2023/03/30 01:58:48;;;;;;;6.18;1.50;;;;;;;12.12;81.26;100331.97;5062752;28;20028;-75
2023/03/30 02:01:19;;;;;;;7.68;2.60;;;;;;;12.25;80.70;100329.56;5058562;28;20664;-75
2023/03/30 02:03:50;;;;;;;10.05;1.70;;;;;;;12.24;80.56;100322.75;5048920;28;20043;-76
2023/03/30 02:06:24;;;;;;;4.20;1.42;;;;;;;12.35;79.56;100315.50;5049161;28;20439;-75
2023/03/30 02:08:54;;;;;;;10.98;1.80;;;;;;;12.29;79.55;100314.41;5044660;28;20028;-76
2023/03/30 02:11:22;;;;;;;9.23;1.83;;;;;;;12.47;78.97;100316.66;5060882;28;20542;-75
2023/03/30 02:13:51;;;;;;;8.10;2.95;;;;;;;12.56;78.54;100315.56;5062057;28;20094;-75
2023/03/30 02:16:33;;;;;;;8.30;2.22;;;;;;;12.41;79.11;100320.78;5064422;28;20028;-75
2023/03/30 02:19:00;;;;;;;6.07;2.03;;;;;;;12.30;79.75;100317.81;5060807;28;20036;-75
2023/03/30 02:21:26;;;;;;;5.68;1.80;;;;;;;12.50;77.87;100311.09;5063808;28;20040;-75
2023/03/30 02:23:55;;;;;;;12.48;2.00;;;;;;;12.64;77.23;100312.88;5048845;28;20059;-75
2023/03/30 02:26:21;;;;;;;13.23;2.20;;;;;;;12.54;78.11;100301.13;5050575;28;20542;-76
2023/03/30 02:28:48;;;;;;;5.28;1.65;;;;;;;12.56;77.75;100299.97;5061962;28;20037;-76
2023/03/30 02:31:15;;;;;;;5.65;1.80;;;;;;;12.62;76.98;100298.44;5061241;28;20024;-76
2023/03/30 02:33:50;;;;;;;4.07;1.70;;;;;;;12.56;77.77;100288.75;5057864;28;20045;-75
2023/03/30 02:36:53;;;;;;;5.68;1.90;;;;;;;12.43;78.35;100292.81;5057111;28;20085;-75
2023/03/30 02:39:43;;;;;;;6.82;1.80;;;;;;;12.29;78.77;100285.81;5077084;28;20395;-76
2023/03/30 02:42:25;;;;;;;10.40;1.95;;;;;;;12.35;78.83;100285.09;5046118;28;20083;-75
2023/03/30 02:45:01;;;;;;;;;;;;;;;12.33;78.68;100286.28;5046142;28;20541;-75
2023/03/30 02:48:06;;;;;;;8.02;2.85;;;;;;;12.46;78.00;100289.84;5061407;28;19919;-75
2023/03/30 02:51:01;;;;;;;8.73;1.63;;;;;;;12.60;76.81;100287.41;5032014;28;20048;-75
2023/03/30 02:54:01;;;;;;;9.07;1.92;;;;;;;12.70;76.00;100279.34;5046326;28;20390;-76
2023/03/30 02:56:55;;;;;;;11.68;1.75;;;;;;;12.75;76.20;100275.19;5064101;28;20037;-75
2023/03/30 02:59:34;;;;;;;12.98;1.52;;;;;;;12.63;76.77;100276.66;5045393;28;20040;-76
2023/03/30 03:02:33;;;;;;;7.32;1.35;;;;;;;12.49;77.70;100280.06;5047495;28;20056;-75
2023/03/30 03:05:12;;;;;;;5.22;1.85;;;;;;;12.35;78.29;100282.50;5043864;28;20047;-76
2023/03/30 03:08:04;;;;;;;9.52;1.45;;;;;;;12.34;78.20;100280.91;5057270;28;20493;-75
2023/03/30 03:10:30;;;;;;;7.65;1.50;;;;;;;12.26;78.64;100273.16;5038640;28;20037;-75
2023/03/30 03:12:56;;;;;;;6.10;1.58;;;;;;;12.17;79.50;100285.47;5044977;28;20031;-76
2023/03/30 03:15:22;;;;;;;6.60;2.00;;;;;;;12.12;80.14;100295.59;5060496;28;20094;-75
2023/03/30 03:18:01;;;;;;;7.00;1.60;;;;;;;12.07;80.30;100300.50;5057982;28;20032;-75
2023/03/30 03:20:29;;;;;;;3.35;1.58;;;;;;;12.05;81.18;100297.28;5057375;28;20063;-76
2023/03/30 03:22:55;;;;;;;10.70;1.88;;;;;;;11.99;81.25;100292.78;5058978;28;20044;-75
2023/03/30 03:25:21;;;;;;;4.70;1.50;;;;;;;12.13;80.49;100288.59;5035960;28;20141;-75
2023/03/30 03:27:55;;;;;;;8.68;1.60;;;;;;;12.21;79.89;100284.13;5058479;28;20809;-75
2023/03/30 03:30:24;;;;;;;9.52;1.75;;;;;;;12.23;80.00;100284.75;5043317;28;20065;-76
2023/03/30 03:33:01;;;;;;;7.05;1.88;;;;;;;12.14;80.28;100291.00;5048390;28;20036;-76
2023/03/30 03:35:30;;;;;;;6.20;2.95;;;;;;;12.07;80.69;100283.13;5062416;28;20139;-76
2023/03/30 03:37:57;;;;;;;6.00;1.85;;;;;;;12.07;81.75;100283.13;5046602;28;20444;-75
2023/03/30 03:40:22;;;;;;;11.20;2.03;;;;;;;12.07;81.32;100269.31;5060062;28;20029;-75
2023/03/30 03:42:48;;;;;;;8.90;1.40;;;;;;;12.03;81.50;100270.66;5045454;28;20601;-75
2023/03/30 03:45:13;;;;;;;8.80;1.48;;;;;;;11.94;81.87;100263.94;5059222;28;20043;-75
2023/03/30 03:47:57;;;;;;;6.97;2.95;;;;;;;11.89;82.42;100261.84;5047706;28;20085;-75
2023/03/30 03:50:40;;;;;;;7.45;2.42;;;;;;;11.94;81.94;100263.94;5041925;28;20473;-75
2023/03/30 03:53:06;;;;;;;10.68;3.10;;;;;;;11.99;81.58;100256.41;5059273;28;21869;-75
2023/03/30 03:55:35;;;;;;;9.43;2.97;;;;;;;11.94;81.91;100262.16;5061476;28;20063;-76
2023/03/30 03:58:02;;;;;;;9.20;3.30;;;;;;;11.88;83.07;100261.03;5052758;28;20063;-76
2023/03/30 04:00:28;;;;;;;12.48;4.15;;;;;;;11.81;84.09;100244.56;5050578;28;20036;-75
2023/03/30 04:02:55;;;;;;;8.43;3.13;;;;;;;11.78;83.90;100246.69;5052635;28;20562;-76
2023/03/30 04:05:22;;;;;;;8.50;3.42;;;;;;;11.69;84.74;100257.13;5067536;28;20044;-75
2023/03/30 04:07:48;;;;;;;9.15;2.58;;;;;;;11.64;85.54;100263.84;5068229;28;20027;-76
2023/03/30 04:10:14;;;;;;;5.88;2.58;;;;;;;11.58;86.44;100256.75;5063088;28;20033;-76
2023/03/30 04:12:57;;;;;;;7.80;2.42;;;;;;;11.57;86.72;100242.19;5063666;28;20723;-75
2023/03/30 04:15:43;;;;;;;12.25;2.50;;;;;;;11.60;87.06;100245.25;5062990;28;20454;-75
2023/03/30 04:18:30;;;;;;;7.40;2.60;;;;;;;11.53;86.98;100251.28;5050958;28;20036;-75
2023/03/30 04:21:28;;;;;;;9.30;2.00;;;;;;;11.72;86.17;100250.81;5054099;28;20070;-76
2023/03/30 04:24:10;;;;;;;12.77;2.38;;;;;;;11.78;85.64;100250.09;5063778;28;20662;-77
2023/03/30 04:26:56;;;;;;;8.88;1.75;;;;;;;11.97;84.35;100240.19;5064496;28;20410;-75
2023/03/30 04:29:57;;;;;;;7.20;3.15;;;;;;;12.22;83.28;100257.16;5068776;28;20029;-76
2023/03/30 04:32:53;;;;;;;12.30;1.52;;;;;;;12.18;83.52;100245.47;5062936;28;20036;-76
2023/03/30 04:35:50;;;;;;;7.50;1.92;;;;;;;12.26;83.16;100247.16;5059664;28;20563;-75
2023/03/30 04:38:36;;;;;;;4.32;1.70;;;;;;;12.29;82.43;100244.22;5026783;28;20603;-76
2023/03/30 04:41:24;;;;;;;13.45;2.47;;;;;;;12.28;82.91;100240.00;5068894;28;20047;-76
2023/03/30 04:44:09;;;;;;;9.88;1.50;;;;;;;12.44;81.84;100241.63;5063737;28;20059;-76
2023/03/30 04:46:51;;;;;;;4.10;1.85;;;;;;;12.43;82.19;100235.63;5065318;28;20031;-76
2023/03/30 04:49:52;;;;;;;13.23;1.92;;;;;;;12.63;81.18;100259.22;5047799;28;20078;-76
2023/03/30 04:52:36;;;;;;;8.45;1.88;;;;;;;12.74;80.65;100252.75;5063838;28;20761;-74
2023/03/30 04:55:41;;;;;;;11.65;2.53;;;;;;;12.64;80.92;100240.06;4989395;28;20046;-76
2023/03/30 04:58:30;;;;;;;6.47;1.80;;;;;;;12.66;81.12;100237.28;4990226;28;20113;-76
2023/03/30 05:01:05;;;;;;;6.28;2.25;;;;;;;12.74;80.42;100241.56;5043244;28;20032;-75
2023/03/30 05:04:04;;;;;;;6.70;1.50;;;;;;;12.77;80.02;100242.00;5060641;28;20036;-76
2023/03/30 05:06:52;;;;;;;12.52;2.00;;;;;;;12.85;79.81;100236.69;5027062;28;20039;-76
2023/03/30 05:09:44;;;;;;;7.22;2.72;;;;;;;12.86;79.50;100240.06;5030151;28;20036;-76
2023/03/30 05:12:30;;;;;;;4.90;1.77;;;;;;;12.89;79.31;100250.13;5049171;28;20035;-76
2023/03/30 05:15:05;;;;;;;3.13;1.35;;;;;;;12.93;78.96;100240.94;5064441;28;20041;-76
2023/03/30 05:17:46;;;;;;;6.28;1.70;;;;;;;12.94;79.10;100242.59;5063873;28;20089;-75
2023/03/30 05:20:19;;;;;;;4.50;1.23;;;;;;;12.80;79.10;100246.03;5046597;28;20036;-76
2023/03/30 05:23:01;;;;;;;10.77;1.42;;;;;;;12.94;78.38;100234.78;5061063;28;20029;-76
2023/03/30 05:25:47;;;;;;;8.27;2.15;;;;;;;12.92;78.47;100239.34;5059976;28;20035;-76
2023/03/30 05:28:32;;;;;;;5.78;1.48;;;;;;;12.93;78.17;100246.16;5063278;28;20551;-76
2023/03/30 05:31:21;;;;;;;11.60;1.50;;;;;;;12.97;78.13;100244.00;5056589;28;20157;-76
2023/03/30 05:34:07;;;;;;;8.52;1.40;;;;;;;12.80;78.42;100239.00;5030515;28;20040;-76
2023/03/30 05:36:53;;;;;;;11.20;1.98;;;;;;;12.86;78.16;100247.88;5050086;28;20032;-75
2023/03/30 05:39:33;;;;;;;8.77;1.77;;;;;;;12.75;78.61;100246.59;5065544;28;20039;-75
2023/03/30 05:42:11;;;;;;;10.63;1.67;;;;;;;12.75;78.32;100243.97;5061320;28;20048;-77
2023/03/30 05:44:56;;;;;;;3.13;0.90;;;;;;;12.79;77.95;100239.19;5061777;28;20392;-78
2023/03/30 05:47:28;;;;;;;4.25;1.00;;;;;;;12.76;77.97;100242.97;5070233;28;20102;-75
2023/03/30 05:50:20;;;;;;;6.95;1.40;;;;;;;12.74;77.74;100246.75;5060527;28;20402;-76
2023/03/30 05:52:52;;;;;;;4.35;1.23;;;;;;;12.76;77.64;100250.78;5041041;28;20028;-76
2023/03/30 05:55:48;;;;;;;3.72;1.10;;;;;;;12.80;77.56;100243.41;5013064;28;20092;-76
2023/03/30 05:58:38;;;;;;;4.22;1.20;;;;;;;12.71;78.08;100255.72;5051451;28;20090;-76
2023/03/30 06:01:17;;;;;;;6.05;1.30;;;;;;;12.78;78.39;100259.22;5065271;28;20090;-77
2023/03/30 06:03:46;;;;;;;6.43;1.60;;;;;;;12.76;78.35;100266.38;5061974;28;20033;-76
2023/03/30 06:06:13;;;;;;;4.55;1.17;;;;;;;12.67;78.79;100262.28;5046179;28;20440;-76
2023/03/30 06:08:40;;;;;;;7.50;2.03;;;;;;;12.65;78.90;100266.88;5056413;28;20024;-76
2023/03/30 06:11:08;;;;;;;6.90;1.55;;;;;;;12.53;79.78;100266.53;5064044;28;20028;-75
2023/03/30 06:13:57;;;;;;;5.68;1.25;;;;;;;12.60;80.03;100266.59;5051274;28;20041;-75
2023/03/30 06:16:24;;;;;;;12.25;2.50;;;;;;;12.59;80.25;100275.41;5055628;28;20491;-76
2023/03/30 06:18:50;;;;;;;8.38;1.95;;;;;;;12.63;80.22;100263.66;5046730;28;20040;-76
2023/03/30 06:21:16;;;;;;;5.97;1.73;;;;;;;12.64;80.82;100268.66;5046181;28;20021;-76
2023/03/30 06:24:10;;;;;;;7.90;1.60;;;;;;;12.65;81.22;100264.25;5037136;28;20131;-75
2023/03/30 06:26:38;;;;;;;6.30;1.88;;;;;;;12.64;81.48;100267.88;5060969;28;20111;-76
2023/03/30 06:29:03;;;;;;;7.32;2.00;;;;;;;12.68;81.17;100270.88;5060979;28;20032;-76
2023/03/30 06:31:30;;;;;;;8.75;1.90;;;;;;;12.67;81.92;100270.09;5046720;28;20443;-76
2023/03/30 06:34:15;;;;;;;9.20;1.92;;;;;;;12.63;82.34;100274.84;5060678;28;20183;-75
2023/03/30 06:36:41;;;;;;;5.10;1.40;;;;;;;12.79;81.17;100286.03;5049126;28;20701;-75
2023/03/30 06:39:08;;;;;;;7.47;1.70;;;;;;;12.70;81.42;100285.34;5058811;28;20032;-76
2023/03/30 06:41:33;;;;;;;10.52;2.00;;;;;;;12.81;80.80;100284.06;5066287;28;20478;-77
2023/03/30 06:44:02;;;;;;;10.82;3.03;;;;;;;12.83;80.70;100279.50;5044673;28;20037;-76
2023/03/30 06:46:33;;;;;;;8.15;1.75;;;;;;;13.04;80.56;100284.72;5065130;28;20509;-77
2023/03/30 06:48:58;;;;;;;7.78;1.50;;;;;;;13.07;80.22;100280.13;5040482;28;20040;-76
2023/03/30 06:51:53;;;;;;;5.80;1.58;;;;;;;13.07;79.03;100293.94;4990884;28;20681;-76
2023/03/30 06:54:19;;;;;;;6.57;1.52;;;;;;;13.15;79.33;100293.84;5046732;28;20041;-76
2023/03/30 06:56:52;;;;;;;5.93;1.38;;;;;;;13.17;79.14;100280.66;5049348;28;20021;-76
2023/03/30 06:59:17;;;;;;;6.72;1.58;;;;;;;13.19;78.55;100300.28;5043166;28;20541;-76
2023/03/30 07:02:15;;;;;;;4.70;1.20;;;;;;;13.41;78.29;100298.53;5052752;28;20431;-75
2023/03/30 07:05:07;;;;;;;14.77;2.03;;;;;;;13.36;77.62;100300.88;5040718;28;20505;-75
2023/03/30 07:07:46;;;;;;;10.07;1.73;;;;;;;13.35;78.31;100308.88;5063813;28;20048;-76
2023/03/30 07:10:12;;;;;;;8.07;1.40;;;;;;;13.48;78.22;100310.78;5040594;28;20029;-76
2023/03/30 07:12:39;;;;;;;6.25;1.40;;;;;;;13.58;77.41;100308.66;5064714;28;20036;-77
2023/03/30 07:15:06;;;;;;;7.70;1.35;;;;;;;13.63;77.56;100311.53;5063448;28;20398;-76
2023/03/30 07:17:33;;;;;;;4.00;1.60;;;;;;;13.60;77.69;100319.72;5054198;28;20398;-76
2023/03/30 07:20:00;;;;;;;5.65;1.40;;;;;;;13.60;77.28;100312.72;5061319;28;20064;-81
2023/03/30 07:22:26;;;;;;;6.30;1.30;;;;;;;13.54;78.21;100323.06;5047185;28;20020;-76
2023/03/30 07:24:51;;;;;;;2.42;0.93;;;;;;;13.49;78.90;100328.84;5041060;28;20029;-76
2023/03/30 07:27:17;;;;;;;4.47;1.30;;;;;;;13.49;79.35;100328.03;5060499;28;20028;-77
2023/03/30 07:29:44;;;;;;;5.55;1.10;;;;;;;13.47;80.51;100335.22;5042170;28;20124;-77
2023/03/30 07:32:10;;;;;;;6.15;1.10;;;;;;;13.38;81.69;100340.56;5040829;28;20556;-76
2023/03/30 07:34:35;;;;;;;9.10;1.10;;;;;;;13.24;82.45;100341.38;5046995;28;20049;-77
2023/03/30 07:37:01;;;;;;;4.05;1.10;;;;;;;13.35;81.74;100340.13;5044985;28;20036;-77
2023/03/30 07:39:30;;;;;;;10.98;1.35;;;;;;;13.41;81.19;100350.59;5059762;28;20059;-78
2023/03/30 07:41:55;;;;;;;8.52;1.73;;;;;;;13.38;80.98;100353.56;5062733;28;20028;-76
2023/03/30 07:44:21;;;;;;;3.95;1.00;;;;;;;13.43;80.43;100353.03;5059809;28;20107;-77
2023/03/30 07:46:47;;;;;;;9.68;1.70;;;;;;;13.41;80.36;100353.22;5043965;28;20395;-76
2023/03/30 07:49:24;;;;;;;5.75;1.27;;;;;;;13.31;80.32;100357.91;5048955;28;20045;-76
2023/03/30 07:51:50;;;;;;;8.93;1.30;;;;;;;13.30;81.40;100355.44;5046878;28;20041;-77
2023/03/30 07:54:24;;;;;;;10.02;1.98;;;;;;;13.29;81.69;100362.47;5049551;28;20096;-76
2023/03/30 07:57:06;;;;;;;7.05;1.52;;;;;;;13.36;82.34;100362.56;5051048;28;20040;-76
2023/03/30 07:59:31;;;;;;;7.97;1.48;;;;;;;13.30;82.20;100365.88;5051370;28;20029;-77
2023/03/30 08:02:12;;;;;;;6.65;1.63;;;;;;;13.30;82.59;100364.13;5045515;28;20135;-75
2023/03/30 08:04:48;;;;;;;10.68;1.55;;;;;;;13.32;83.01;100369.16;5046564;28;20033;-77
2023/03/30 08:07:23;;;;;;;10.80;2.03;;;;;;;13.51;82.53;100375.53;5060212;28;20056;-76
2023/03/30 08:09:53;;;;;;;9.88;1.70;;;;;;;13.63;82.38;100371.44;5048470;28;20028;-77
2023/03/30 08:12:19;;;;;;;18.48;1.83;;;;;;;13.69;82.12;100370.69;5047962;28;20063;-77
2023/03/30 08:14:45;;;;;;;8.95;1.77;;;;;;;13.62;81.42;100378.47;5047685;28;20045;-76
2023/03/30 08:17:11;;;;;;;10.23;1.50;;;;;;;13.61;81.29;100382.03;5050099;28;20032;-76
2023/03/30 08:19:37;;;;;;;12.05;1.70;;;;;;;13.69;81.02;100382.91;5059006;28;20099;-77
2023/03/30 08:22:02;;;;;;;11.65;1.40;;;;;;;14.39;78.37;100376.03;5060401;28;20119;-77
2023/03/30 08:24:28;;;;;;;7.82;1.45;;;;;;;15.64;72.92;100368.91;5061708;28;20033;-76
2023/03/30 08:26:53;;;;;;;10.23;1.40;;;;;;;16.49;69.02;100374.31;5059864;28;20029;-76
2023/03/30 08:29:19;;;;;;;10.50;1.48;;;;;;;16.60;68.03;100370.25;5056744;28;20064;-76
2023/03/30 08:31:45;;;;;;;10.90;1.40;;;;;;;16.36;67.10;100363.88;5068138;28;20032;-78
2023/03/30 08:34:10;;;;;;;6.50;1.25;;;;;;;16.46;66.48;100373.91;5067901;28;20121;-77
2023/03/30 08:36:36;;;;;;;7.20;1.13;;;;;;;15.99;67.42;100370.56;5046806;28;20470;-75
2023/03/30 08:39:03;;;;;;;13.43;2.17;;;;;;;15.77;68.09;100363.72;5046795;28;20056;-77
2023/03/30 08:41:38;;;;;;;10.20;2.33;;;;;;;15.42;69.55;100370.06;5057584;28;20033;-76
2023/03/30 08:44:35;;;;;;;9.93;1.40;;;;;;;15.29;70.35;100374.25;5051584;28;20032;-76
2023/03/30 08:47:03;;;;;;;19.42;2.05;;;;;;;14.99;71.87;100369.38;5060824;28;20042;-76
2023/03/30 08:49:34;;;;;;;8.75;1.52;;;;;;;14.80;72.53;100367.47;5063715;28;20423;-77
2023/03/30 08:52:03;;;;;;;14.52;1.90;;;;;;;14.90;71.56;100380.97;5050549;28;20112;-76
2023/03/30 08:54:31;;;;;;;19.27;1.77;;;;;;;14.60;71.54;100390.88;5059427;28;20055;-76
2023/03/30 08:57:06;;;;;;;9.45;1.55;;;;;;;14.44;72.88;100381.50;5064310;28;20044;-76
2023/03/30 08:59:42;;;;;;;9.82;1.60;;;;;;;14.39;73.41;100389.06;5061510;28;20044;-76
2023/03/30 09:02:16;;;;;;;11.73;1.70;;;;;;;14.20;75.88;100391.38;5065753;28;20445;-77
2023/03/30 09:04:55;;;;;;;12.18;3.80;;;;;;;14.10;77.59;100392.69;5061767;28;20075;-77
2023/03/30 09:07:28;;;;;;;9.77;1.42;;;;;;;13.90;79.73;100389.91;5056639;28;20036;-77
2023/03/30 09:09:55;;;;;;;16.53;1.80;;;;;;;13.93;80.31;100381.72;5045771;28;20033;-76
2023/03/30 09:12:39;;;;;;;7.00;1.67;;;;;;;14.00;80.65;100400.84;5057345;28;20033;-79
2023/03/30 09:15:17;;;;;;;13.30;2.42;;;;;;;13.79;81.33;100397.25;5058497;28;20570;-77
2023/03/30 09:18:08;;;;;;;9.75;1.58;;;;;;;13.68;80.79;100417.78;5057620;28;20040;-76
2023/03/30 09:20:36;;;;;;;9.75;1.52;;;;;;;13.97;79.89;100422.06;5061881;28;20123;-75
2023/03/30 09:23:03;;;;;;;8.57;1.90;;;;;;;14.89;77.68;100417.72;5044737;28;20118;-76
2023/03/30 09:25:40;;;;;;;6.90;1.83;;;;;;;15.02;75.04;100433.44;5062604;28;20044;-76
2023/03/30 09:28:20;;;;;;;8.88;1.38;;;;;;;14.90;74.30;100416.69;5062521;28;20131;-77
2023/03/30 09:31:12;;;;;;;20.00;1.80;;;;;;;14.53;75.21;100410.84;5066443;28;20040;-76
2023/03/30 09:33:50;;;;;;;7.45;1.77;;;;;;;14.37;75.75;100432.81;5052695;28;21973;-76
2023/03/30 09:36:25;;;;;;;14.30;1.83;;;;;;;14.10;75.57;100432.59;5060638;28;20039;-79
2023/03/30 09:38:51;;;;;;;7.85;1.20;;;;;;;13.72;77.24;100437.28;5065413;28;20139;-76
2023/03/30 09:41:32;;;;;;;18.60;1.83;;;;;;;13.57;78.47;100455.53;5063195;28;20127;-77
2023/03/30 09:43:59;;;;;;;14.70;1.77;;;;;;;13.32;80.43;100457.69;5058182;28;20045;-76
2023/03/30 09:46:24;;;;;;;11.38;1.70;;;;;;;13.28;80.66;100444.19;5059742;28;20128;-75
2023/03/30 09:48:50;;;;;;;13.93;1.85;;;;;;;13.19;80.92;100461.69;5065924;28;20131;-77
2023/03/30 09:51:27;;;;;;;9.50;2.30;;;;;;;13.25;80.84;100460.94;5061966;28;20438;-76
2023/03/30 09:54:02;;;;;;;13.75;2.08;;;;;;;13.18;80.83;100469.69;5057075;28;20067;-75
2023/03/30 09:56:36;;;;;;;8.30;1.65;;;;;;;13.09;81.53;100470.75;5067703;28;20427;-77
2023/03/30 09:59:27;;;;;;;7.63;1.40;;;;;;;13.14;81.18;100478.84;5060736;28;20041;-76
2023/03/30 10:02:09;;;;;;;13.85;1.70;;;;;;;13.16;81.64;100469.06;5063804;28;20036;-76
2023/03/30 10:04:55;;;;;;;7.97;1.50;;;;;;;13.18;81.91;100472.28;5059969;28;20165;-77
2023/03/30 10:07:22;;;;;;;16.15;1.92;;;;;;;13.24;82.42;100453.31;5047084;28;20384;-77
2023/03/30 10:09:47;;;;;;;10.82;1.95;;;;;;;13.36;82.86;100448.50;5064070;28;20510;-76
2023/03/30 10:12:14;;;;;;;6.60;2.00;;;;;;;13.40;81.96;100452.34;5062503;28;20028;-77
2023/03/30 10:14:39;;;;;;;13.27;1.95;;;;;;;13.41;82.08;100453.94;5046003;28;20568;-77
2023/03/30 10:17:06;;;;;;;12.98;2.47;;;;;;;13.47;82.62;100460.22;5065027;28;20040;-76
2023/03/30 10:19:33;;;;;;;9.00;1.77;;;;;;;13.45;83.11;100476.06;5041793;28;20451;-76
2023/03/30 10:22:03;;;;;;;14.57;2.05;;;;;;;13.58;83.86;100478.81;5067899;28;20020;-77
2023/03/30 10:24:32;;;;;;;9.48;1.80;;;;;;;13.73;82.97;100478.78;5059692;28;20140;-77
2023/03/30 10:27:02;;;;;;;10.50;2.05;;;;;;;14.00;82.88;100479.03;5062200;28;20275;-76
2023/03/30 10:29:29;;;;;;;12.07;1.88;;;;;;;14.16;82.35;100470.94;5063725;28;20102;-76
2023/03/30 10:32:02;;;;;;;10.63;1.73;;;;;;;14.24;80.89;100475.25;5046675;28;20025;-77
2023/03/30 10:34:35;;;;;;;12.10;1.88;;;;;;;14.46;80.30;100475.22;5059641;28;20090;-77
2023/03/30 10:37:05;;;;;;;7.20;1.90;;;;;;;14.72;79.57;100464.19;5062006;28;20040;-76
2023/03/30 10:39:33;;;;;;;9.68;2.05;;;;;;;15.11;78.43;100466.22;5042323;28;20052;-75
2023/03/30 10:42:03;;;;;;;10.82;2.65;;;;;;;15.28;77.98;100468.50;5048581;28;20515;-76
2023/03/30 10:44:58;;;;;;;16.20;2.30;;;;;;;15.50;77.39;100463.94;5057117;28;20041;-77
2023/03/30 10:47:26;;;;;;;9.57;1.90;;;;;;;15.63;75.14;100458.75;5046185;28;20072;-77
2023/03/30 10:50:04;;;;;;;8.40;1.75;;;;;;;15.70;73.76;100456.97;5060957;28;20136;-77
2023/03/30 10:53:00;;;;;;;3.92;1.65;;;;;;;15.38;71.46;100456.66;5060661;28;20036;-76
2023/03/30 10:55:35;;;;;;;10.48;1.88;;;;;;;15.57;73.49;100470.78;5063357;28;20041;-79
2023/03/30 10:58:14;;;;;;;8.55;1.80;;;;;;;15.37;71.32;100468.13;5070228;28;20074;-79
2023/03/30 11:01:09;;;;;;;10.90;1.90;;;;;;;15.47;70.76;100462.53;5060866;28;20040;-77
2023/03/30 11:03:38;;;;;;;12.85;1.80;;;;;;;15.39;70.09;100470.56;5027710;28;20059;-78
2023/03/30 11:06:28;;;;;;;5.65;1.27;;;;;;;15.30;70.14;100480.34;5065435;28;20105;-76
2023/03/30 11:08:57;;;;;;;6.03;1.80;;;;;;;15.29;70.32;100473.50;5060997;28;20040;-76
2023/03/30 11:11:38;;;;;;;7.65;1.77;;;;;;;15.50;72.10;100475.22;5048735;28;20111;-77
2023/03/30 11:14:15;;;;;;;11.70;2.97;;;;;;;15.53;70.70;100476.63;5059994;28;20177;-77
2023/03/30 11:16:53;;;;;;;14.18;2.22;;;;;;;15.40;69.97;100476.59;5045923;28;20036;-77
2023/03/30 11:19:31;;;;;;;8.30;1.50;;;;;;;15.64;70.44;100472.66;5059919;28;20041;-76
2023/03/30 11:22:06;;;;;;;5.55;1.20;;;;;;;15.53;70.43;100474.00;5062594;28;20032;-77
2023/03/30 11:24:34;;;;;;;5.50;1.15;;;;;;;15.34;68.40;100481.56;5059653;28;20028;-76
2023/03/30 11:27:16;;;;;;;6.10;1.65;;;;;;;15.21;68.89;100478.13;5065020;28;20047;-77
2023/03/30 11:30:03;;;;;;;9.63;1.35;;;;;;;15.46;69.90;100479.19;5040250;28;20136;-77
2023/03/30 11:32:37;;;;;;;8.82;1.67;;;;;;;15.55;68.25;100477.22;5063210;28;20044;-77
2023/03/30 11:35:37;;;;;;;5.57;1.17;;;;;;;15.50;67.27;100461.31;5047321;28;20040;-78
2023/03/30 11:38:20;;;;;;;12.75;2.25;;;;;;;15.56;68.13;100466.59;5039640;28;20027;-77
2023/03/30 11:40:50;;;;;;;9.10;1.70;;;;;;;15.71;69.38;100468.25;5040455;28;20445;-77
2023/03/30 11:43:18;;;;;;;14.70;2.55;;;;;;;15.71;68.93;100458.59;5078287;28;20044;-76
2023/03/30 11:45:43;;;;;;;7.72;1.83;;;;;;;15.88;68.43;100471.28;5060776;28;20082;-77
2023/03/30 11:48:24;;;;;;;6.72;1.50;;;;;;;16.09;69.05;100470.34;5058271;28;20557;-76
2023/03/30 11:51:11;;;;;;;16.58;4.35;;;;;;;16.02;68.80;100477.38;5042971;28;20040;-77
2023/03/30 11:53:58;;;;;;;7.40;1.30;;;;;;;15.53;68.98;100474.00;5056793;28;20339;-77
2023/03/30 11:56:38;;;;;;;8.52;1.85;;;;;;;15.13;72.05;100484.31;5064391;28;20072;-76
2023/03/30 11:59:08;;;;;;;11.45;2.03;;;;;;;14.76;79.96;100494.91;5044232;28;20042;-79
2023/03/30 12:02:03;;;;;;;4.68;1.08;;;;;;;14.73;85.17;100492.72;5051249;28;20047;-79